createdAt,value
2023-08-05T07:31:23.605Z,13.90
2023-08-05T07:33:54.258Z,13.80
2023-08-05T07:36:25.935Z,13.80
2023-08-05T07:38:57.498Z,13.80
2023-08-05T07:41:29.014Z,13.70
2023-08-05T07:44:00.894Z,13.60
2023-08-05T07:46:34.198Z,13.50
2023-08-05T07:49:05.674Z,13.50
2023-08-05T07:51:35.604Z,13.40
2023-08-05T07:54:05.148Z,13.40
2023-08-05T07:56:38.138Z,13.30
2023-08-05T07:59:07.550Z,13.30
2023-08-05T08:01:37.120Z,13.30
2023-08-05T08:04:07.098Z,13.20
2023-08-05T08:06:36.535Z,13.10
2023-08-05T08:09:06.975Z,12.90
2023-08-05T08:11:36.604Z,12.80
2023-08-05T08:14:07.373Z,12.80
2023-08-05T08:16:36.799Z,12.80
2023-08-05T08:19:07.392Z,12.80
2023-08-05T08:21:37.260Z,12.70
2023-08-05T08:24:08.754Z,12.60
2023-08-05T08:26:38.257Z,12.60
2023-08-05T08:29:08.182Z,12.60
2023-08-05T08:31:37.749Z,12.70
2023-08-05T08:34:07.604Z,12.70
2023-08-05T08:36:37.197Z,12.60
2023-08-05T08:39:07.275Z,12.70
2023-08-05T08:41:41.444Z,12.70
2023-08-05T08:44:12.298Z,12.70
2023-08-05T08:46:42.204Z,12.60
2023-08-05T08:49:11.972Z,12.60
2023-08-05T08:51:42.434Z,12.60
2023-08-05T08:54:13.196Z,12.60
2023-08-05T08:56:42.846Z,12.50
2023-08-05T08:59:12.836Z,12.60
2023-08-05T09:01:46.217Z,12.50
2023-08-05T09:04:16.022Z,12.50
2023-08-05T09:06:46.503Z,12.50
2023-08-05T09:09:15.977Z,12.50
2023-08-05T09:11:45.410Z,12.40
2023-08-05T09:14:17.853Z,12.40
2023-08-05T09:17:07.644Z,12.40
2023-08-05T09:19:37.109Z,12.30
2023-08-05T09:22:08.721Z,12.30
2023-08-05T09:24:38.310Z,12.30
2023-08-05T09:27:07.920Z,12.20
2023-08-05T09:29:39.282Z,12.20
2023-08-05T09:34:41.572Z,12.10
2023-08-05T09:37:12.700Z,12.00
2023-08-05T09:39:50.109Z,12.00
2023-08-05T09:42:30.948Z,11.90
2023-08-05T09:45:07.490Z,11.90
2023-08-05T09:47:37.612Z,11.80
2023-08-05T09:50:10.526Z,11.80
2023-08-05T09:52:40.477Z,11.80
2023-08-05T09:55:13.540Z,11.80
2023-08-05T09:57:44.435Z,11.80
2023-08-05T10:00:16.213Z,11.80
2023-08-05T10:02:46.698Z,11.80
2023-08-05T10:05:16.690Z,11.80
2023-08-05T10:07:46.609Z,11.80
2023-08-05T10:10:24.246Z,11.80
2023-08-05T10:13:03.445Z,11.80
2023-08-05T10:15:34.311Z,11.80
2023-08-05T10:18:04.051Z,11.80
2023-08-05T10:20:40.142Z,11.80
2023-08-05T10:28:00.997Z,11.90
2023-08-05T10:30:30.815Z,11.90
2023-08-05T10:33:02.970Z,11.90
2023-08-05T10:35:41.237Z,11.90
2023-08-05T10:38:16.910Z,11.90
2023-08-05T10:40:54.454Z,11.90
2023-08-05T10:43:33.247Z,11.90
2023-08-05T10:46:22.701Z,11.80
2023-08-05T10:48:52.296Z,11.80
2023-08-05T10:51:22.873Z,11.80
2023-08-05T10:53:55.089Z,11.80
2023-08-05T10:56:33.174Z,11.80
2023-08-05T10:59:05.749Z,11.80
2023-08-05T11:01:55.210Z,11.80
2023-08-05T11:04:43.494Z,11.80
2023-08-05T11:07:13.057Z,11.80
2023-08-05T11:09:43.220Z,11.80
2023-08-05T11:12:12.837Z,11.80
2023-08-05T11:14:42.246Z,11.70
2023-08-05T11:17:13.136Z,11.80
2023-08-05T11:19:57.593Z,11.70
2023-08-05T11:22:28.018Z,11.80
2023-08-05T11:24:58.587Z,11.80
2023-08-05T11:27:37.165Z,11.80
2023-08-05T19:33:04.237Z,8.80
2023-08-05T19:35:33.728Z,8.80
2023-08-05T19:38:03.280Z,8.80
2023-08-05T19:40:32.701Z,8.80
2023-08-05T19:43:03.064Z,8.80
2023-08-05T19:45:32.615Z,8.80
2023-08-05T19:48:02.031Z,8.80
2023-08-05T19:50:32.721Z,8.80
2023-08-05T19:53:02.117Z,8.80
2023-08-05T19:55:35.049Z,8.80
2023-08-05T19:58:04.465Z,8.70
2023-08-05T20:00:34.280Z,8.70
2023-08-05T20:03:03.810Z,8.70
2023-08-05T20:05:36.172Z,8.70
2023-08-05T20:08:05.686Z,8.70
2023-08-05T20:10:35.096Z,8.70
2023-08-05T20:13:04.582Z,8.60
2023-08-05T20:15:34.177Z,8.60
2023-08-05T20:18:03.661Z,8.70
2023-08-05T20:20:33.148Z,8.60
2023-08-05T20:23:02.646Z,8.60
2023-08-05T20:25:32.112Z,8.60
2023-08-05T20:28:01.564Z,8.60
2023-08-05T20:30:31.025Z,8.60
2023-08-05T20:33:02.984Z,8.60
2023-08-05T20:35:36.142Z,8.60
2023-08-05T20:38:06.714Z,8.50
2023-08-05T20:40:39.143Z,8.50
2023-08-05T20:43:08.550Z,8.50
2023-08-05T20:45:41.156Z,8.60
2023-08-05T20:48:11.634Z,8.50
2023-08-05T20:50:41.237Z,8.50
2023-08-05T20:53:13.198Z,8.50
2023-08-05T20:55:42.633Z,8.60
2023-08-05T20:58:12.244Z,8.50
2023-08-05T21:00:41.644Z,8.50
2023-08-05T21:03:13.306Z,8.60
2023-08-05T21:05:42.751Z,8.60
2023-08-05T21:08:12.162Z,8.50
2023-08-05T21:10:41.595Z,8.50
2023-08-05T21:13:11.017Z,8.50
2023-08-05T21:15:44.585Z,8.50
2023-08-05T21:18:14.069Z,8.50
2023-08-05T21:20:43.562Z,8.50
2023-08-05T21:23:13.118Z,8.60
2023-08-05T21:25:42.517Z,8.50
2023-08-05T21:28:11.988Z,8.60
2023-08-05T21:30:41.468Z,8.60
2023-08-05T21:33:11.341Z,8.60
2023-08-05T21:35:42.506Z,8.60
2023-08-05T21:38:12.029Z,8.60
2023-08-05T21:40:48.460Z,8.60
2023-08-05T21:43:18.516Z,8.60
2023-08-05T21:45:55.212Z,8.70
2023-08-05T21:48:25.399Z,8.70
2023-08-05T21:50:55.088Z,8.70
2023-08-05T21:53:25.010Z,8.70
2023-08-05T21:55:54.653Z,8.80
2023-08-05T21:58:24.175Z,8.70
2023-08-05T22:00:55.694Z,8.80
2023-08-05T22:03:27.049Z,8.80
2023-08-05T22:06:06.487Z,8.80
2023-08-05T22:08:39.329Z,8.80
2023-08-05T22:11:14.618Z,8.80
2023-08-05T22:13:45.712Z,8.80
2023-08-05T22:16:15.187Z,8.90
2023-08-05T22:18:45.606Z,9.00
2023-08-05T22:21:16.258Z,9.00
